Time;durP1;ratioP1;P1;durP2;ratioP2;P2;SDS_P1;SDS_P2;PMS_P1;PMS_P2;Temp;Humidity;BMP_temperature;BMP_pressure;BME280_temperature;BME280_humidity;BME280_pressure;Samples;Min_cycle;Max_cycle;Signal;HPM_P1;HPM_P2
2021/04/07 00:00:22;;;;;;;4.53;3.00;;;-2.60;99.90;;;;;;2074169;28;20174;-64
2021/04/07 00:01:23;;;;;;;3.00;2.30;;;-2.60;99.90;;;;;;2074011;28;20205;-64
2021/04/07 00:02:23;;;;;;;2.90;2.70;;;-2.60;99.90;;;;;;2073894;28;20186;-63
2021/04/07 00:03:24;;;;;;;2.83;2.50;;;-2.60;99.90;;;;;;2073814;28;20643;-64
2021/04/07 00:04:25;;;;;;;2.70;2.50;;;-2.60;99.90;;;;;;2073853;28;20178;-64
2021/04/07 00:05:30;;;;;;;2.63;2.37;;;-2.60;99.90;;;;;;2073755;28;20204;-65
2021/04/07 00:06:34;;;;;;;2.55;2.17;;;-2.60;99.90;;;;;;2074046;28;20182;-65
2021/04/07 00:07:35;;;;;;;2.75;2.53;;;-2.70;99.90;;;;;;2073299;28;20221;-64
2021/04/07 00:08:36;;;;;;;3.30;3.00;;;-2.60;99.90;;;;;;2073347;28;20181;-64
2021/04/07 00:09:37;;;;;;;3.15;2.70;;;-2.70;99.90;;;;;;2074053;28;20182;-65
2021/04/07 00:10:41;;;;;;;3.50;3.20;;;-2.70;99.90;;;;;;2073982;28;20204;-65
2021/04/07 00:11:42;;;;;;;3.20;2.90;;;-2.80;99.90;;;;;;2064652;28;20603;-65
2021/04/07 00:12:43;;;;;;;3.50;3.20;;;-2.80;99.90;;;;;;2065113;28;20186;-65
2021/04/07 00:13:45;;;;;;;4.43;3.35;;;-2.70;99.90;;;;;;2073098;28;20637;-65
2021/04/07 00:14:46;;;;;;;4.63;3.05;;;-2.70;99.90;;;;;;2073956;28;20220;-65
2021/04/07 00:15:46;;;;;;;3.47;3.17;;;-2.70;99.90;;;;;;2073735;28;20643;-65
2021/04/07 00:16:48;;;;;;;4.33;2.80;;;-2.70;99.90;;;;;;2073890;28;20201;-65
2021/04/07 00:17:50;;;;;;;5.32;3.30;;;-2.70;99.90;;;;;;2073873;28;20281;-65
2021/04/07 00:18:50;;;;;;;2.83;2.60;;;-2.70;99.90;;;;;;2074256;28;20188;-64
2021/04/07 00:19:51;;;;;;;4.07;3.30;;;-2.70;99.90;;;;;;2074002;28;20210;-64
2021/04/07 00:20:52;;;;;;;3.23;2.93;;;-2.70;99.90;;;;;;2074174;28;20220;-65
2021/04/07 00:21:53;;;;;;;3.70;2.93;;;-2.70;99.90;;;;;;2073736;28;20571;-65
2021/04/07 00:22:54;;;;;;;3.63;2.80;;;-2.70;99.90;;;;;;2073542;28;20226;-63
2021/04/07 00:23:54;;;;;;;3.42;2.88;;;-2.70;99.90;;;;;;2065172;28;20254;-65
2021/04/07 00:24:55;;;;;;;3.60;2.90;;;-2.70;99.90;;;;;;2065375;28;20182;-64
2021/04/07 00:25:56;;;;;;;3.90;3.33;;;-2.70;99.90;;;;;;2073906;28;20586;-65
2021/04/07 00:26:57;;;;;;;2.83;2.50;;;-2.80;99.90;;;;;;2074008;28;20174;-65
2021/04/07 00:28:00;;;;;;;3.13;2.40;;;-2.70;99.90;;;;;;2073698;28;20178;-64
2021/04/07 00:29:01;;;;;;;2.50;2.30;;;-2.80;99.90;;;;;;2073373;28;20188;-65
2021/04/07 00:30:07;;;;;;;3.40;2.20;;;-2.80;99.90;;;;;;2065613;28;20216;-64
2021/04/07 00:31:08;;;;;;;3.15;2.70;;;-2.80;99.90;;;;;;2065827;28;20241;-65
2021/04/07 00:32:08;;;;;;;2.50;2.27;;;-2.80;99.90;;;;;;2073127;28;20190;-64
2021/04/07 00:33:09;;;;;;;2.80;2.40;;;-2.80;99.90;;;;;;2073947;28;20182;-63
2021/04/07 00:34:10;;;;;;;2.30;2.10;;;-2.90;99.90;;;;;;2073855;28;20177;-63
2021/04/07 00:35:11;;;;;;;2.50;2.30;;;-2.90;99.90;;;;;;2073845;28;20181;-63
2021/04/07 00:36:12;;;;;;;3.70;2.65;;;-2.90;99.90;;;;;;2073976;28;20463;-64
2021/04/07 00:37:13;;;;;;;3.07;2.23;;;-2.90;99.90;;;;;;2073797;28;20239;-63
2021/04/07 00:38:14;;;;;;;2.47;2.27;;;-3.00;99.90;;;;;;2073681;28;20275;-63
2021/04/07 00:39:14;;;;;;;3.10;2.30;;;-3.00;99.90;;;;;;2073988;28;20652;-65
2021/04/07 00:40:16;;;;;;;3.53;2.70;;;-3.10;99.90;;;;;;2073807;28;20178;-63
2021/04/07 00:41:17;;;;;;;2.42;2.22;;;-3.20;99.90;;;;;;2073535;28;20873;-64
2021/04/07 00:42:18;;;;;;;3.20;2.20;;;-3.10;99.90;;;;;;2073770;28;20182;-64
2021/04/07 00:43:18;;;;;;;2.30;2.10;;;-3.20;99.90;;;;;;2073839;28;20413;-65
2021/04/07 00:44:19;;;;;;;8.97;2.50;;;-3.20;99.90;;;;;;2073679;28;20719;-64
2021/04/07 00:45:22;;;;;;;2.20;2.00;;;-3.10;99.90;;;;;;2073951;28;20232;-64
2021/04/07 00:46:23;;;;;;;3.03;2.05;;;-3.20;99.90;;;;;;2073146;28;20268;-64
2021/04/07 00:47:24;;;;;;;3.03;2.30;;;-3.20;99.90;;;;;;2065034;28;20185;-63
2021/04/07 00:48:24;;;;;;;2.77;2.33;;;-3.20;99.90;;;;;;2064990;28;20195;-63
2021/04/07 00:49:25;;;;;;;2.83;2.33;;;-3.20;99.90;;;;;;2073778;28;20820;-65
2021/04/07 00:50:29;;;;;;;3.75;1.98;;;-3.20;99.90;;;;;;2073849;28;20193;-64
2021/04/07 00:51:30;;;;;;;5.03;2.40;;;-3.20;99.90;;;;;;2072745;28;20217;-63
2021/04/07 00:52:30;;;;;;;2.73;2.43;;;-3.10;99.90;;;;;;2073139;28;20186;-64
2021/04/07 00:53:31;;;;;;;2.70;2.27;;;-3.10;99.90;;;;;;2073657;28;20316;-63
2021/04/07 00:54:32;;;;;;;4.47;2.07;;;-3.10;99.90;;;;;;2073314;28;20188;-64
2021/04/07 00:55:37;;;;;;;2.83;1.90;;;-3.20;99.90;;;;;;2073021;28;20213;-64
2021/04/07 00:56:38;;;;;;;3.35;1.95;;;-3.20;99.90;;;;;;2073675;28;20173;-63
2021/04/07 00:57:40;;;;;;;2.37;2.00;;;-3.20;99.90;;;;;;2073066;28;20237;-63
2021/04/07 00:58:41;;;;;;;2.17;1.98;;;-3.20;99.90;;;;;;2065100;28;20229;-64
2021/04/07 00:59:42;;;;;;;2.93;2.00;;;-3.20;99.90;;;;;;2065036;28;20178;-63
2021/04/07 01:00:43;;;;;;;2.37;2.17;;;-3.20;99.90;;;;;;2073152;28;20174;-64
2021/04/07 01:01:44;;;;;;;4.03;2.17;;;-3.20;99.90;;;;;;2064756;28;20392;-63
2021/04/07 01:02:47;;;;;;;2.47;1.88;;;-3.10;99.90;;;;;;2073080;28;20264;-64
2021/04/07 01:03:48;;;;;;;3.15;2.17;;;-3.20;99.90;;;;;;2072845;28;20687;-63
2021/04/07 01:04:50;;;;;;;2.37;1.97;;;-3.20;99.90;;;;;;2073182;28;20174;-65
2021/04/07 01:05:54;;;;;;;2.63;2.30;;;-3.20;99.90;;;;;;2073748;28;20265;-64
2021/04/07 01:06:56;;;;;;;4.55;2.20;;;-3.30;99.90;;;;;;2072975;28;20565;-64
2021/04/07 01:07:58;;;;;;;2.97;2.30;;;-3.30;99.90;;;;;;2065010;28;20273;-64
2021/04/07 01:08:58;;;;;;;2.85;2.25;;;-3.20;99.90;;;;;;2073104;28;20217;-64
2021/04/07 01:09:59;;;;;;;4.03;2.20;;;-3.20;99.90;;;;;;2072946;28;20248;-64
2021/04/07 01:11:00;;;;;;;2.30;2.10;;;-3.30;99.90;;;;;;2073063;28;20664;-63
2021/04/07 01:12:00;;;;;;;2.57;2.10;;;-3.30;99.90;;;;;;2072707;28;20241;-64
2021/04/07 01:13:01;;;;;;;3.27;2.43;;;-3.30;99.90;;;;;;2073020;28;20285;-65
2021/04/07 01:14:03;;;;;;;3.73;2.70;;;-3.30;99.90;;;;;;2073549;28;20289;-64
2021/04/07 01:15:06;;;;;;;5.38;2.92;;;-3.40;99.90;;;;;;2073644;28;20182;-64
2021/04/07 01:16:06;;;;;;;2.92;2.60;;;-3.40;99.90;;;;;;2072916;28;20204;-63
2021/04/07 01:17:08;;;;;;;2.90;2.60;;;-3.40;99.90;;;;;;2072951;28;20177;-64
2021/04/07 01:18:09;;;;;;;4.10;2.60;;;-3.40;99.90;;;;;;2072738;28;20205;-65
2021/04/07 01:19:10;;;;;;;6.00;3.15;;;-3.40;99.90;;;;;;2072000;28;20205;-62
2021/04/07 01:20:16;;;;;;;3.42;2.47;;;-3.40;99.90;;;;;;2070681;28;20177;-64
2021/04/07 01:21:17;;;;;;;4.07;2.72;;;-3.40;99.90;;;;;;2072754;28;20308;-63
2021/04/07 01:22:21;;;;;;;3.28;2.67;;;-3.40;99.90;;;;;;2072757;28;20188;-64
2021/04/07 01:23:22;;;;;;;4.68;2.78;;;-3.40;99.90;;;;;;2073592;28;20198;-64
2021/04/07 01:24:24;;;;;;;5.40;2.80;;;-3.40;99.90;;;;;;2073278;28;20224;-64
2021/04/07 01:25:25;;;;;;;5.20;3.10;;;-3.40;99.90;;;;;;2072859;28;20185;-64
2021/04/07 01:26:26;;;;;;;3.47;2.90;;;-3.40;99.90;;;;;;2072844;28;20215;-63
2021/04/07 01:27:27;;;;;;;3.57;2.93;;;-3.30;99.90;;;;;;2072923;28;20174;-63
2021/04/07 01:28:28;;;;;;;4.80;3.20;;;-3.30;99.90;;;;;;2072769;28;20185;-64
2021/04/07 01:29:28;;;;;;;4.33;3.20;;;-3.30;99.90;;;;;;2072735;28;21029;-64
2021/04/07 01:30:29;;;;;;;3.47;3.17;;;-3.30;99.90;;;;;;2072845;28;20189;-64
2021/04/07 01:31:31;;;;;;;4.37;3.17;;;-3.30;99.90;;;;;;2073209;28;20204;-63
2021/04/07 01:32:31;;;;;;;4.00;2.90;;;-3.30;99.90;;;;;;2073283;28;20431;-64
2021/04/07 01:33:32;;;;;;;3.87;3.13;;;-3.30;99.90;;;;;;2073391;28;20209;-64
2021/04/07 01:34:33;;;;;;;4.10;3.07;;;-3.30;99.90;;;;;;2073403;28;20177;-63
2021/04/07 01:35:34;;;;;;;3.25;2.80;;;-3.30;99.90;;;;;;2072858;28;20248;-64
2021/04/07 01:36:35;;;;;;;3.50;2.83;;;-3.20;99.90;;;;;;2072766;28;20235;-64
2021/04/07 01:37:37;;;;;;;3.90;3.13;;;-3.20;99.90;;;;;;2073517;28;20197;-64
2021/04/07 01:38:38;;;;;;;5.00;3.15;;;-3.20;99.90;;;;;;2073318;28;20256;-64
2021/04/07 01:39:39;;;;;;;4.70;3.50;;;-3.20;99.90;;;;;;2073262;28;20181;-63
2021/04/07 01:40:45;;;;;;;3.30;2.60;;;-3.20;99.90;;;;;;2073198;28;20209;-63
2021/04/07 01:41:47;;;;;;;5.28;3.15;;;-3.20;99.90;;;;;;2073896;28;20850;-63
2021/04/07 01:42:49;;;;;;;3.80;3.08;;;-3.20;99.90;;;;;;2074011;28;20186;-64
2021/04/07 01:43:50;;;;;;;3.67;3.35;;;-3.20;99.90;;;;;;2074345;28;20177;-63
2021/04/07 01:44:52;;;;;;;6.90;3.05;;;-3.20;99.90;;;;;;2074236;28;20174;-64
2021/04/07 01:45:56;;;;;;;4.20;2.70;;;-3.30;99.90;;;;;;2073270;28;20177;-64
2021/04/07 01:46:56;;;;;;;3.28;2.65;;;-3.30;99.90;;;;;;2064846;28;20189;-64
2021/04/07 01:47:57;;;;;;;5.80;3.00;;;-3.30;99.90;;;;;;2064688;28;20179;-64
2021/04/07 01:48:58;;;;;;;3.47;2.83;;;-3.20;99.90;;;;;;2064417;28;20248;-63
2021/04/07 01:50:01;;;;;;;4.75;2.95;;;-3.20;99.90;;;;;;2064515;28;20269;-63
2021/04/07 01:51:02;;;;;;;3.88;2.97;;;-3.20;99.90;;;;;;2072586;28;20208;-64
2021/04/07 01:52:03;;;;;;;4.53;3.13;;;-3.20;99.90;;;;;;2072450;28;20185;-63
2021/04/07 01:53:03;;;;;;;3.90;3.10;;;-3.20;99.90;;;;;;2072710;28;20191;-63
2021/04/07 01:54:10;;;;;;;5.13;3.47;;;-3.30;99.90;;;;;;2073390;28;20436;-64
2021/04/07 01:55:11;;;;;;;5.03;2.90;;;-3.20;99.90;;;;;;2073178;28;20181;-64
2021/04/07 01:56:12;;;;;;;4.47;3.28;;;-3.20;99.90;;;;;;2073206;28;20186;-63
2021/04/07 01:57:13;;;;;;;5.90;3.30;;;-3.20;99.90;;;;;;2073069;28;20272;-64
2021/04/07 01:58:14;;;;;;;5.10;3.20;;;-3.30;99.90;;;;;;2072665;28;20209;-63
2021/04/07 01:59:22;;;;;;;4.60;3.10;;;-3.30;99.90;;;;;;2072745;28;20182;-64
2021/04/07 02:00:23;;;;;;;3.33;2.88;;;-3.20;99.90;;;;;;2072813;28;20209;-64
2021/04/07 02:01:24;;;;;;;3.88;3.08;;;-3.20;99.90;;;;;;2072243;28;20276;-64
2021/04/07 02:02:25;;;;;;;5.33;3.50;;;-3.30;99.90;;;;;;2072621;28;20602;-64
2021/04/07 02:03:25;;;;;;;4.53;3.10;;;-3.30;99.90;;;;;;2072532;28;20174;-63
2021/04/07 02:04:27;;;;;;;3.57;2.83;;;-3.20;99.90;;;;;;2073157;28;20173;-64
2021/04/07 02:05:30;;;;;;;3.38;2.90;;;-3.20;99.90;;;;;;2073067;28;20425;-63
2021/04/07 02:06:30;;;;;;;3.55;3.10;;;-3.20;99.90;;;;;;2073053;28;20280;-64
2021/04/07 02:07:31;;;;;;;5.70;2.90;;;-3.20;99.90;;;;;;2073057;28;20261;-64
2021/04/07 02:08:32;;;;;;;4.33;3.00;;;-3.20;99.90;;;;;;2073071;28;20182;-64
2021/04/07 02:09:32;;;;;;;7.00;3.43;;;-3.20;99.90;;;;;;2073304;28;20228;-63
2021/04/07 02:10:33;;;;;;;3.53;3.00;;;-3.20;99.90;;;;;;2073196;28;20182;-64
2021/04/07 02:11:39;;;;;;;5.47;2.90;;;-3.20;99.90;;;;;;2072814;28;20197;-63
2021/04/07 02:12:40;;;;;;;4.50;3.10;;;-3.20;99.90;;;;;;2073090;28;20172;-64
2021/04/07 02:13:41;;;;;;;5.45;3.20;;;-3.30;99.90;;;;;;2073299;28;20186;-63
2021/04/07 02:14:42;;;;;;;3.35;2.80;;;-3.20;99.90;;;;;;2073228;28;20170;-65
2021/04/07 02:15:42;;;;;;;5.63;3.27;;;-3.30;99.90;;;;;;2073241;28;20178;-64
2021/04/07 02:16:52;;;;;;;4.90;3.30;;;-3.30;99.90;;;;;;2073119;28;20213;-63
2021/04/07 02:17:53;;;;;;;5.28;2.97;;;-3.30;99.90;;;;;;2073060;28;20198;-64
2021/04/07 02:18:53;;;;;;;5.10;3.10;;;-3.30;99.90;;;;;;2073090;28;20323;-66
2021/04/07 02:19:54;;;;;;;5.80;2.73;;;-3.30;99.90;;;;;;2073277;28;20184;-64
2021/04/07 02:20:55;;;;;;;3.83;3.20;;;-3.30;99.90;;;;;;2073213;28;20536;-64
2021/04/07 02:22:10;;;;;;;3.93;2.60;;;-3.40;99.90;;;;;;2072109;28;20189;-64
2021/04/07 02:23:11;;;;;;;7.38;2.95;;;-3.40;99.90;;;;;;2072770;28;20547;-63
2021/04/07 02:24:12;;;;;;;4.28;2.92;;;-3.30;99.90;;;;;;2071558;28;20276;-64
2021/04/07 02:25:13;;;;;;;4.13;2.60;;;-3.30;99.90;;;;;;2073081;28;20661;-64
2021/04/07 02:26:14;;;;;;;3.13;2.42;;;-3.30;99.90;;;;;;2073042;28;20381;-64
2021/04/07 02:27:22;;;;;;;4.63;2.80;;;-3.30;99.90;;;;;;2073083;28;20197;-63
2021/04/07 02:28:23;;;;;;;3.45;2.65;;;-3.30;99.90;;;;;;2073079;28;20228;-64
2021/04/07 02:29:24;;;;;;;3.70;2.60;;;-3.30;99.90;;;;;;2073161;28;20684;-64
2021/04/07 02:30:25;;;;;;;3.53;2.70;;;-3.30;99.90;;;;;;2073056;28;20185;-63
2021/04/07 02:31:26;;;;;;;3.60;2.90;;;-3.30;99.90;;;;;;2072696;28;20565;-64
2021/04/07 02:32:26;;;;;;;3.30;2.53;;;-3.30;99.90;;;;;;2073052;28;20281;-64
2021/04/07 02:33:27;;;;;;;3.50;2.70;;;-3.30;99.90;;;;;;2073064;28;20189;-63
2021/04/07 02:34:29;;;;;;;5.85;2.90;;;-3.30;99.90;;;;;;2073050;28;20189;-64
2021/04/07 02:35:30;;;;;;;4.05;2.97;;;-3.30;99.90;;;;;;2072407;28;20189;-64
2021/04/07 02:36:30;;;;;;;3.57;2.93;;;-3.30;99.90;;;;;;2072441;28;20186;-63
2021/04/07 02:37:31;;;;;;;3.43;3.07;;;-3.30;99.90;;;;;;2072876;28;20287;-63
2021/04/07 02:38:32;;;;;;;4.70;3.20;;;-3.30;99.90;;;;;;2072926;28;20324;-64
2021/04/07 02:39:33;;;;;;;4.47;3.00;;;-3.30;99.90;;;;;;2072455;28;20205;-63
2021/04/07 02:40:34;;;;;;;4.60;3.33;;;-3.30;99.90;;;;;;2072403;28;20257;-64
2021/04/07 02:41:34;;;;;;;6.25;3.72;;;-3.30;99.90;;;;;;2071913;28;20210;-63
2021/04/07 02:42:35;;;;;;;4.17;3.10;;;-3.40;99.90;;;;;;2072469;28;20235;-64
2021/04/07 02:43:36;;;;;;;4.13;3.43;;;-3.40;99.90;;;;;;2072797;28;20182;-63
2021/04/07 02:44:38;;;;;;;4.57;3.47;;;-3.30;99.90;;;;;;2073117;28;20212;-63
2021/04/07 02:45:39;;;;;;;5.25;3.45;;;-3.30;99.90;;;;;;2072243;28;20174;-64
2021/04/07 02:46:39;;;;;;;4.73;3.60;;;-3.40;99.90;;;;;;2072484;28;20185;-63
2021/04/07 02:47:40;;;;;;;3.50;3.20;;;-3.30;99.90;;;;;;2072163;28;20189;-64
2021/04/07 02:48:41;;;;;;;3.60;3.00;;;-3.30;99.90;;;;;;2072408;28;20627;-64
2021/04/07 02:49:41;;;;;;;4.53;3.43;;;-3.30;99.90;;;;;;2072302;28;20272;-63
2021/04/07 02:50:42;;;;;;;7.43;3.53;;;-3.30;99.90;;;;;;2072415;28;20524;-64
2021/04/07 02:51:43;;;;;;;6.10;3.03;;;-3.30;99.90;;;;;;2072563;28;20189;-64
2021/04/07 02:52:43;;;;;;;4.40;3.60;;;-3.30;99.90;;;;;;2073313;28;20174;-63
2021/04/07 02:53:44;;;;;;;3.93;3.13;;;-3.30;99.90;;;;;;2072878;28;20619;-63
2021/04/07 02:54:45;;;;;;;4.23;3.50;;;-3.30;99.90;;;;;;2072984;28;20182;-63
2021/04/07 02:55:46;;;;;;;5.33;3.67;;;-3.30;99.90;;;;;;2073037;28;20185;-64
2021/04/07 02:56:46;;;;;;;5.13;3.60;;;-3.20;99.90;;;;;;2072794;28;20185;-63
2021/04/07 02:57:47;;;;;;;3.47;2.97;;;-3.30;99.90;;;;;;2072547;28;20819;-62
2021/04/07 02:58:48;;;;;;;4.27;3.53;;;-3.30;99.90;;;;;;2072745;28;20174;-63
2021/04/07 02:59:49;;;;;;;5.23;3.43;;;-3.30;99.90;;;;;;2072530;28;20177;-64
2021/04/07 03:00:50;;;;;;;6.63;3.75;;;-3.30;99.90;;;;;;2072794;28;20235;-64
2021/04/07 03:01:51;;;;;;;7.03;3.73;;;-3.30;99.90;;;;;;2072430;28;20209;-63
2021/04/07 03:02:51;;;;;;;4.90;3.77;;;-3.20;99.90;;;;;;2072769;28;20174;-63
2021/04/07 03:03:52;;;;;;;4.83;3.70;;;-3.20;99.90;;;;;;2072684;28;20288;-63
2021/04/07 03:04:53;;;;;;;4.23;3.67;;;-3.20;99.90;;;;;;2072640;28;20198;-63
2021/04/07 03:05:53;;;;;;;5.13;3.67;;;-3.30;99.90;;;;;;2072619;28;20204;-63
2021/04/07 03:06:54;;;;;;;5.67;3.77;;;-3.30;99.90;;;;;;2072714;28;20177;-63
2021/04/07 03:07:55;;;;;;;6.50;3.70;;;-3.30;99.90;;;;;;2072668;28;20173;-64
2021/04/07 03:08:55;;;;;;;4.70;3.40;;;-3.30;99.90;;;;;;2072725;28;20174;-63
2021/04/07 03:09:56;;;;;;;5.67;3.27;;;-3.30;99.90;;;;;;2072656;28;20178;-64
2021/04/07 03:10:57;;;;;;;4.03;3.53;;;-3.30;99.90;;;;;;2072699;28;20621;-63
2021/04/07 03:11:57;;;;;;;6.07;4.50;;;-3.30;99.90;;;;;;2071602;28;20355;-62
2021/04/07 03:12:58;;;;;;;6.37;3.73;;;-3.30;99.90;;;;;;2072100;28;20224;-62
2021/04/07 03:13:59;;;;;;;4.73;3.70;;;-3.30;99.90;;;;;;2072631;28;20201;-63
2021/04/07 03:15:00;;;;;;;4.73;3.77;;;-3.30;99.90;;;;;;2072693;28;20676;-63
2021/04/07 03:16:00;;;;;;;5.37;4.23;;;-3.30;99.90;;;;;;2072696;28;20188;-63
2021/04/07 03:17:01;;;;;;;4.53;3.90;;;-3.30;99.90;;;;;;2072667;28;20213;-63
2021/04/07 03:18:02;;;;;;;4.63;4.13;;;-3.30;99.90;;;;;;2068145;28;20209;-63
2021/04/07 03:19:03;;;;;;;4.93;3.90;;;-3.30;99.90;;;;;;2064449;28;20217;-63
2021/04/07 03:20:06;;;;;;;4.82;3.55;;;-3.30;99.90;;;;;;2065268;28;20182;-64
2021/04/07 03:21:07;;;;;;;4.00;3.55;;;-3.30;99.90;;;;;;2065861;28;20190;-63
2021/04/07 03:22:08;;;;;;;4.67;4.07;;;-3.30;99.90;;;;;;2066059;28;20321;-63
2021/04/07 03:23:08;;;;;;;5.47;3.40;;;-3.30;99.90;;;;;;2066119;28;20178;-63
2021/04/07 03:24:09;;;;;;;5.03;3.37;;;-3.30;99.90;;;;;;2066008;28;20194;-62
2021/04/07 03:25:11;;;;;;;5.37;4.03;;;-3.30;99.90;;;;;;2066021;28;20184;-63
2021/04/07 03:26:11;;;;;;;4.65;3.70;;;-3.30;99.90;;;;;;2066152;28;20182;-63
2021/04/07 03:27:12;;;;;;;4.90;3.80;;;-3.30;99.90;;;;;;2065931;28;20261;-63
2021/04/07 03:28:13;;;;;;;5.80;4.73;;;-3.30;99.90;;;;;;2066113;28;20178;-63
2021/04/07 03:29:13;;;;;;;4.70;3.37;;;-3.30;99.90;;;;;;2066055;28;20703;-63
2021/04/07 03:30:17;;;;;;;4.27;3.23;;;-3.30;99.90;;;;;;2066045;28;20651;-63
2021/04/07 03:31:17;;;;;;;6.30;3.70;;;-3.30;99.90;;;;;;2065562;28;20598;-64
2021/04/07 03:32:20;;;;;;;5.20;4.10;;;-3.30;99.90;;;;;;2065994;28;20195;-63
2021/04/07 03:33:30;;;;;;;5.55;3.80;;;-3.30;99.90;;;;;;2065993;28;20753;-63
2021/04/07 03:34:31;;;;;;;4.75;4.00;;;-3.30;99.90;;;;;;2066122;28;20190;-62
2021/04/07 03:35:31;;;;;;;4.20;3.60;;;-3.20;99.90;;;;;;2065937;28;20265;-63
2021/04/07 03:36:32;;;;;;;4.60;3.63;;;-3.20;99.90;;;;;;2066020;28;20217;-63
2021/04/07 03:37:33;;;;;;;4.50;3.60;;;-3.30;99.90;;;;;;2065801;28;20209;-63
2021/04/07 03:38:34;;;;;;;4.20;3.10;;;-3.30;99.90;;;;;;2066063;28;20186;-63
2021/04/07 03:39:35;;;;;;;4.32;3.58;;;-3.30;99.90;;;;;;2065931;28;20181;-62
2021/04/07 03:40:36;;;;;;;4.33;3.37;;;-3.30;99.90;;;;;;2066065;28;20183;-63
2021/04/07 03:41:37;;;;;;;4.78;3.50;;;-3.40;99.90;;;;;;2065010;28;20256;-63
2021/04/07 03:42:37;;;;;;;4.00;3.33;;;-3.40;99.90;;;;;;2057300;28;20226;-62
2021/04/07 03:43:38;;;;;;;5.73;3.70;;;-3.40;99.90;;;;;;2065327;28;20585;-63
2021/04/07 03:44:39;;;;;;;4.93;4.10;;;-3.40;99.90;;;;;;2065421;28;20183;-63
2021/04/07 03:45:51;;;;;;;3.93;3.10;;;-3.40;99.90;;;;;;2065341;28;20179;-63
2021/04/07 03:46:53;;;;;;;4.43;3.28;;;-3.40;99.90;;;;;;2066007;28;20166;-63
2021/04/07 03:47:54;;;;;;;5.72;3.47;;;-3.40;99.90;;;;;;2065825;28;20677;-62
2021/04/07 03:48:54;;;;;;;3.67;3.23;;;-3.40;99.90;;;;;;2065915;28;20178;-63
2021/04/07 03:49:55;;;;;;;6.33;3.83;;;-3.50;99.90;;;;;;2065898;28;20588;-63
2021/04/07 03:50:58;;;;;;;4.33;3.57;;;-3.50;99.90;;;;;;2066065;28;20182;-63
2021/04/07 03:51:58;;;;;;;4.78;3.78;;;-3.50;99.90;;;;;;2065628;28;20253;-63
2021/04/07 03:52:59;;;;;;;4.73;3.50;;;-3.50;99.90;;;;;;2066063;28;20191;-63
2021/04/07 03:54:00;;;;;;;5.37;3.97;;;-3.40;99.90;;;;;;2065848;28;20232;-62
2021/04/07 03:55:01;;;;;;;4.80;3.23;;;-3.40;99.90;;;;;;2065931;28;20183;-63
2021/04/07 03:56:01;;;;;;;4.73;3.60;;;-3.40;99.90;;;;;;2065934;28;20657;-62
2021/04/07 03:57:02;;;;;;;4.30;3.63;;;-3.40;99.90;;;;;;2065939;28;20237;-63
2021/04/07 03:58:03;;;;;;;4.40;3.70;;;-3.40;99.90;;;;;;2065651;28;20208;-63
2021/04/07 03:59:05;;;;;;;4.85;3.50;;;-3.40;99.90;;;;;;2065813;28;20192;-62
2021/04/07 04:00:06;;;;;;;3.97;3.50;;;-3.40;99.90;;;;;;2066376;28;20217;-62
2021/04/07 04:01:07;;;;;;;5.22;3.67;;;-3.40;99.90;;;;;;2065659;28;20608;-62
2021/04/07 04:02:08;;;;;;;4.53;3.57;;;-3.50;99.90;;;;;;2065732;28;20264;-62
2021/04/07 04:03:09;;;;;;;4.37;3.30;;;-3.50;99.90;;;;;;2065872;28;20203;-63
2021/04/07 04:04:10;;;;;;;5.00;4.00;;;-3.40;99.90;;;;;;2065093;28;20257;-61
2021/04/07 04:05:11;;;;;;;6.32;3.97;;;-3.40;99.90;;;;;;2065327;28;20669;-62
2021/04/07 04:06:12;;;;;;;5.18;3.55;;;-3.40;99.90;;;;;;2065224;28;20537;-62
2021/04/07 04:07:13;;;;;;;5.00;3.27;;;-3.40;99.90;;;;;;2065219;28;20185;-63
2021/04/07 04:08:14;;;;;;;5.77;3.73;;;-3.40;99.90;;;;;;2065718;28;20276;-63
2021/04/07 04:09:16;;;;;;;5.53;4.00;;;-3.40;99.90;;;;;;2065696;28;20224;-63
2021/04/07 04:10:17;;;;;;;5.05;4.50;;;-3.50;99.90;;;;;;2065819;28;20194;-63
2021/04/07 04:11:18;;;;;;;6.32;3.55;;;-3.50;99.90;;;;;;2065539;28;20197;-63
2021/04/07 04:12:19;;;;;;;7.13;4.40;;;-3.50;99.90;;;;;;2065687;28;20278;-63
2021/04/07 04:13:20;;;;;;;6.00;4.17;;;-3.50;99.90;;;;;;2065778;28;20178;-63
2021/04/07 04:14:20;;;;;;;4.47;3.47;;;-3.40;99.90;;;;;;2065764;28;20726;-62
2021/04/07 04:15:21;;;;;;;6.77;4.50;;;-3.40;99.90;;;;;;2065528;28;20885;-62
2021/04/07 04:16:22;;;;;;;7.15;4.57;;;-3.50;99.90;;;;;;2065791;28;20220;-63
2021/04/07 04:17:23;;;;;;;7.20;4.70;;;-3.50;99.90;;;;;;2065676;28;20186;-62
2021/04/07 04:18:23;;;;;;;5.63;4.23;;;-3.50;99.90;;;;;;2065732;28;20217;-62
2021/04/07 04:19:24;;;;;;;6.63;4.57;;;-3.50;99.90;;;;;;2065616;28;20194;-62
2021/04/07 04:20:31;;;;;;;6.33;4.07;;;-3.50;99.90;;;;;;2065684;28;20247;-63
2021/04/07 04:21:31;;;;;;;6.70;4.25;;;-3.40;99.90;;;;;;2065253;28;20194;-62
2021/04/07 04:22:33;;;;;;;5.87;4.47;;;-3.40;99.90;;;;;;2065668;28;20650;-62
2021/04/07 04:23:33;;;;;;;6.88;4.32;;;-3.50;99.90;;;;;;2065620;28;20188;-62
2021/04/07 04:24:34;;;;;;;5.77;4.47;;;-3.50;99.90;;;;;;2065770;28;20217;-63
2021/04/07 04:25:35;;;;;;;7.33;4.60;;;-3.50;99.90;;;;;;2065563;28;20175;-63
2021/04/07 04:26:35;;;;;;;6.33;4.50;;;-3.50;99.90;;;;;;2064876;28;20672;-64
2021/04/07 04:27:37;;;;;;;6.20;4.27;;;-3.50;99.90;;;;;;2064916;28;20181;-63
2021/04/07 04:28:38;;;;;;;5.82;4.45;;;-3.50;99.90;;;;;;2064983;28;20306;-63
2021/04/07 04:29:39;;;;;;;5.77;4.20;;;-3.40;99.90;;;;;;2064831;28;20841;-64
2021/04/07 04:30:40;;;;;;;6.43;5.03;;;-3.40;99.90;;;;;;2065189;28;20166;-63
2021/04/07 04:31:40;;;;;;;7.27;4.50;;;-3.40;99.90;;;;;;2065214;28;20669;-63
2021/04/07 04:32:42;;;;;;;6.27;4.83;;;-3.30;99.90;;;;;;2065686;28;20233;-63
2021/04/07 04:33:43;;;;;;;7.00;4.82;;;-3.30;99.90;;;;;;2064763;28;20183;-63
2021/04/07 04:34:43;;;;;;;6.72;4.65;;;-3.30;99.90;;;;;;2064883;28;20174;-63
2021/04/07 04:35:44;;;;;;;7.27;5.17;;;-3.30;99.90;;;;;;2064498;28;20182;-63
2021/04/07 04:36:45;;;;;;;5.87;4.47;;;-3.30;99.90;;;;;;2064679;28;20181;-63
2021/04/07 04:37:47;;;;;;;7.17;4.77;;;-3.30;99.90;;;;;;2065254;28;20293;-63
2021/04/07 04:38:47;;;;;;;4.88;3.97;;;-3.30;99.90;;;;;;2065526;28;20183;-63
2021/04/07 04:39:48;;;;;;;5.97;4.27;;;-3.40;99.90;;;;;;2065457;28;20174;-64
2021/04/07 04:40:49;;;;;;;8.33;5.23;;;-3.40;99.90;;;;;;2065622;28;20586;-63
2021/04/07 04:41:49;;;;;;;6.77;4.43;;;-3.40;99.90;;;;;;2065099;28;20292;-63
2021/04/07 04:42:50;;;;;;;4.57;3.80;;;-3.40;99.90;;;;;;2065596;28;20264;-63
2021/04/07 04:43:51;;;;;;;5.13;4.17;;;-3.40;99.90;;;;;;2065334;28;20671;-63
2021/04/07 04:44:52;;;;;;;8.77;4.90;;;-3.50;99.90;;;;;;2064908;28;20173;-63
2021/04/07 04:45:53;;;;;;;6.82;4.50;;;-3.50;99.90;;;;;;2064765;28;20194;-62
2021/04/07 04:46:54;;;;;;;7.23;4.70;;;-3.50;99.90;;;;;;2065334;28;20556;-62
2021/04/07 04:47:55;;;;;;;7.60;5.45;;;-3.50;99.90;;;;;;2065262;28;20197;-64
2021/04/07 04:48:55;;;;;;;7.57;5.07;;;-3.50;99.90;;;;;;2065406;28;20535;-63
2021/04/07 04:49:56;;;;;;;7.80;5.10;;;-3.50;99.90;;;;;;2065453;28;20174;-64
2021/04/07 04:50:57;;;;;;;7.23;4.83;;;-3.50;99.90;;;;;;2065696;28;20182;-63
2021/04/07 04:51:57;;;;;;;7.07;4.80;;;-3.50;99.90;;;;;;2065212;28;20244;-64
2021/04/07 04:52:58;;;;;;;9.43;5.57;;;-3.40;99.90;;;;;;2065499;28;20218;-64
2021/04/07 04:53:59;;;;;;;6.23;3.97;;;-3.40;99.90;;;;;;2065454;28;20189;-63
2021/04/07 04:54:59;;;;;;;6.60;3.97;;;-3.40;99.90;;;;;;2065420;28;20214;-63
2021/04/07 04:56:00;;;;;;;7.17;4.87;;;-3.50;99.90;;;;;;2065470;28;20186;-64
2021/04/07 04:57:01;;;;;;;9.67;4.73;;;-3.50;99.90;;;;;;2065305;28;20182;-65
2021/04/07 04:58:02;;;;;;;5.47;3.97;;;-3.40;99.90;;;;;;2064778;28;20278;-64
2021/04/07 04:59:03;;;;;;;7.57;3.97;;;-3.40;99.90;;;;;;2056695;28;20199;-64
2021/04/07 05:00:05;;;;;;;5.70;4.13;;;-3.40;99.90;;;;;;2064720;28;20189;-64
2021/04/07 05:01:06;;;;;;;4.47;3.63;;;-3.40;99.90;;;;;;2064550;28;20273;-64
2021/04/07 05:02:07;;;;;;;6.13;3.63;;;-3.40;99.90;;;;;;2064607;28;20576;-65
2021/04/07 05:03:08;;;;;;;4.73;3.50;;;-3.40;99.90;;;;;;2065159;28;20216;-63
2021/04/07 05:04:08;;;;;;;4.27;3.73;;;-3.50;99.90;;;;;;2065421;28;20182;-64
2021/04/07 05:05:10;;;;;;;5.67;3.50;;;-3.50;99.90;;;;;;2065367;28;20196;-64
2021/04/07 05:06:11;;;;;;;4.93;3.17;;;-3.50;99.90;;;;;;2065388;28;20186;-64
2021/04/07 05:07:11;;;;;;;3.77;3.17;;;-3.50;99.90;;;;;;2065264;28;20263;-63
2021/04/07 05:08:12;;;;;;;3.77;3.40;;;-3.50;99.90;;;;;;2065289;28;20210;-64
2021/04/07 05:09:14;;;;;;;6.10;3.43;;;-3.50;99.90;;;;;;2065249;28;20229;-64
2021/04/07 05:10:14;;;;;;;5.50;3.70;;;-3.50;99.90;;;;;;2065393;28;20220;-64
2021/04/07 05:11:15;;;;;;;4.13;3.07;;;-3.50;99.90;;;;;;2064929;28;20185;-64
2021/04/07 05:12:16;;;;;;;4.33;3.67;;;-3.50;99.90;;;;;;2065385;28;20210;-64
2021/04/07 05:13:17;;;;;;;5.03;3.37;;;-3.40;99.90;;;;;;2065230;28;20542;-64
2021/04/07 05:14:18;;;;;;;6.63;3.60;;;-3.50;99.90;;;;;;2065284;28;20236;-64
2021/04/07 05:15:18;;;;;;;4.05;3.10;;;-3.50;99.90;;;;;;2065168;28;20711;-64
2021/04/07 05:16:19;;;;;;;4.23;3.37;;;-3.50;99.90;;;;;;2065258;28;20197;-65
2021/04/07 05:17:20;;;;;;;3.87;2.90;;;-3.50;99.90;;;;;;2065151;28;20197;-64
2021/04/07 05:18:23;;;;;;;7.10;4.13;;;-3.50;99.90;;;;;;2065135;28;20205;-64
2021/04/07 05:19:24;;;;;;;4.18;3.10;;;-3.50;99.90;;;;;;2065213;28;20240;-64